createdAt,value
2018-05-31T00:02:00.949Z,97120.62
2018-05-31T00:04:28.487Z,97122.00
2018-05-31T00:06:56.105Z,97123.92
2018-05-31T00:09:23.653Z,97129.89
2018-05-31T00:11:51.370Z,97131.88
2018-05-31T00:14:18.908Z,97128.77
2018-05-31T00:16:46.444Z,97125.17
2018-05-31T00:19:14.020Z,97130.09
2018-05-31T00:21:41.569Z,97125.14
2018-05-31T00:24:09.504Z,97120.72
2018-05-31T00:26:37.024Z,97117.38
2018-05-31T00:29:04.574Z,97103.66
2018-05-31T00:31:32.141Z,97104.73
2018-05-31T00:33:59.681Z,97104.58
2018-05-31T00:36:27.381Z,97097.20
2018-05-31T00:38:54.924Z,97101.52
2018-05-31T00:41:22.479Z,97106.01
2018-05-31T00:43:50.048Z,97104.58
2018-05-31T00:46:17.580Z,97102.92
2018-05-31T00:48:45.304Z,97099.06
2018-05-31T00:51:12.824Z,97099.41
2018-05-31T00:53:40.364Z,97105.55
2018-05-31T00:56:16.951Z,97109.56
2018-05-31T00:58:44.490Z,97109.20
2018-05-31T01:01:13.007Z,97113.17
2018-05-31T01:03:40.541Z,97108.37
2018-05-31T01:06:08.097Z,97112.27
2018-05-31T01:08:35.664Z,97116.91
2018-05-31T01:11:03.204Z,97121.80
2018-05-31T01:13:30.933Z,97119.56
2018-05-31T01:15:58.484Z,97112.36
2018-05-31T01:18:26.029Z,97106.57
2018-05-31T01:20:53.597Z,97111.48
2018-05-31T01:23:21.906Z,97114.98
2018-05-31T01:25:49.660Z,97115.56
2018-05-31T01:28:17.188Z,97111.84
2018-05-31T01:30:44.737Z,97112.11
2018-05-31T01:33:12.292Z,97104.83
2018-05-31T01:35:39.826Z,97099.92
2018-05-31T01:41:10.480Z,97090.19
2018-05-31T01:43:39.543Z,97088.16
2018-05-31T01:46:07.725Z,97086.05
2018-05-31T01:48:35.267Z,97080.16
2018-05-31T01:51:02.812Z,97081.36
2018-05-31T01:53:30.381Z,97081.87
2018-05-31T01:55:57.952Z,97078.53
2018-05-31T01:58:25.508Z,97075.09
2018-05-31T02:00:53.039Z,97075.73
2018-05-31T02:03:20.601Z,97069.52
2018-05-31T02:05:48.150Z,97064.09
2018-05-31T02:08:15.725Z,97059.94
2018-05-31T02:10:43.332Z,97054.16
2018-05-31T02:13:10.864Z,97062.56
2018-05-31T02:15:38.437Z,97069.77
2018-05-31T02:18:05.981Z,97063.14
2018-05-31T02:20:33.557Z,97057.11
2018-05-31T02:23:01.084Z,97045.86
2018-05-31T02:25:28.627Z,97046.79
2018-05-31T02:27:56.193Z,97050.00
2018-05-31T02:30:23.725Z,97049.21
2018-05-31T02:32:51.309Z,97057.11
2018-05-31T02:35:18.856Z,97064.35
2018-05-31T02:37:46.395Z,97065.97
2018-05-31T02:40:13.964Z,97066.87
2018-05-31T02:42:41.503Z,97067.55
2018-05-31T02:45:09.077Z,97071.05
2018-05-31T02:47:36.611Z,97067.09
2018-05-31T02:50:04.155Z,97061.12
2018-05-31T02:52:31.750Z,97058.08
2018-05-31T02:54:59.477Z,97064.78
2018-05-31T02:57:27.041Z,97073.27
2018-05-31T02:59:54.581Z,97079.19
2018-05-31T03:02:22.125Z,97077.36
2018-05-31T03:04:49.689Z,97079.05
2018-05-31T03:07:17.250Z,97072.31
2018-05-31T03:09:44.929Z,97073.52
2018-05-31T03:12:12.478Z,97083.67
2018-05-31T03:14:40.012Z,97090.56
2018-05-31T03:17:07.573Z,97092.05
2018-05-31T03:19:35.106Z,97088.73
2018-05-31T03:22:02.840Z,97086.23
2018-05-31T03:24:30.372Z,97092.02
2018-05-31T03:26:57.915Z,97084.84
2018-05-31T03:29:25.473Z,97083.62
2018-05-31T03:31:53.013Z,97076.20
2018-05-31T03:34:20.597Z,97081.08
2018-05-31T03:36:48.127Z,97089.70
2018-05-31T03:39:15.661Z,97083.00
2018-05-31T03:41:43.246Z,97093.76
2018-05-31T03:44:10.789Z,97097.00
2018-05-31T03:46:38.836Z,97092.90
2018-05-31T03:49:06.365Z,97095.27
2018-05-31T03:51:33.909Z,97094.12
2018-05-31T03:54:01.474Z,97089.19
2018-05-31T03:56:29.024Z,97092.78
2018-05-31T03:58:56.841Z,97095.47
2018-05-31T04:01:25.484Z,97096.06
2018-05-31T04:03:52.988Z,97093.23
2018-05-31T04:06:20.585Z,97092.61
2018-05-31T04:08:48.125Z,97099.19
2018-05-31T04:11:15.699Z,97099.34
2018-05-31T04:13:43.236Z,97095.59
2018-05-31T04:16:10.772Z,97099.59
2018-05-31T04:18:38.335Z,97100.23
2018-05-31T04:21:05.883Z,97094.19
2018-05-31T04:23:34.200Z,97095.21
2018-05-31T04:26:01.731Z,97100.09
2018-05-31T04:28:29.308Z,97105.56
2018-05-31T04:30:56.942Z,97106.80
2018-05-31T04:33:24.469Z,97104.36
2018-05-31T04:35:52.392Z,97102.17
2018-05-31T04:38:19.934Z,97100.77
2018-05-31T04:40:47.471Z,97106.19
2018-05-31T04:43:15.033Z,97104.52
2018-05-31T04:45:42.568Z,97111.59
2018-05-31T04:48:10.276Z,97113.45
2018-05-31T04:50:37.808Z,97117.62
2018-05-31T04:53:05.332Z,97117.40
2018-05-31T04:55:32.893Z,97109.31
2018-05-31T04:58:00.434Z,97117.17
2018-05-31T05:00:28.176Z,97118.00
2018-05-31T05:02:55.721Z,97117.42
2018-05-31T05:05:23.260Z,97120.50
2018-05-31T05:07:50.825Z,97112.75
2018-05-31T05:10:18.368Z,97114.91
2018-05-31T05:12:46.386Z,97112.71
2018-05-31T05:15:14.470Z,97111.75
2018-05-31T05:17:42.011Z,97111.38
2018-05-31T05:20:09.572Z,97110.56
2018-05-31T05:22:37.159Z,97112.41
2018-05-31T05:25:04.761Z,97113.55
2018-05-31T05:27:32.292Z,97116.06
2018-05-31T05:29:59.828Z,97114.78
2018-05-31T05:32:27.433Z,97124.10
2018-05-31T05:34:54.932Z,97128.54
2018-05-31T05:37:22.896Z,97132.72
2018-05-31T05:39:50.427Z,97131.45
2018-05-31T05:42:17.972Z,97137.08
2018-05-31T05:44:45.546Z,97141.64
2018-05-31T05:47:13.155Z,97142.95
2018-05-31T05:49:40.896Z,97138.73
2018-05-31T05:52:08.432Z,97140.27
2018-05-31T05:54:35.963Z,97141.80
2018-05-31T05:57:03.520Z,97143.63
2018-05-31T05:59:31.053Z,97145.53
2018-05-31T06:01:59.943Z,97144.53
2018-05-31T06:04:27.477Z,97155.46
2018-05-31T06:06:55.008Z,97150.56
2018-05-31T06:09:22.585Z,97154.20
2018-05-31T06:11:50.121Z,97157.00
2018-05-31T06:14:17.685Z,97154.46
2018-05-31T06:16:45.252Z,97153.31
2018-05-31T06:19:12.978Z,97151.91
2018-05-31T06:21:40.546Z,97157.34
2018-05-31T06:24:08.101Z,97158.45
2018-05-31T06:26:35.673Z,97162.30
2018-05-31T06:29:03.209Z,97155.74
2018-05-31T06:31:31.269Z,97166.89
2018-05-31T06:33:58.820Z,97170.63
2018-05-31T06:36:27.296Z,97169.13
2018-05-31T06:38:54.856Z,97173.61
2018-05-31T06:41:22.378Z,97166.58
2018-05-31T06:43:51.041Z,97169.93
2018-05-31T06:46:18.608Z,97173.81
2018-05-31T06:48:49.117Z,97176.75
2018-05-31T06:51:17.165Z,97168.06
2018-05-31T06:53:44.996Z,97174.89
2018-05-31T06:56:12.513Z,97174.33
2018-05-31T06:58:40.157Z,97172.76
2018-05-31T07:01:08.230Z,97179.88
2018-05-31T07:03:35.918Z,97175.70
2018-05-31T07:06:03.436Z,97178.65
2018-05-31T07:08:31.070Z,97183.47
2018-05-31T07:10:58.615Z,97175.92
2018-05-31T07:13:26.142Z,97186.83
2018-05-31T07:15:54.136Z,97184.41
2018-05-31T07:18:21.639Z,97187.70
2018-05-31T07:20:49.840Z,97190.41
2018-05-31T07:23:17.380Z,97187.81
2018-05-31T07:25:44.896Z,97180.80
2018-05-31T07:28:12.452Z,97175.77
2018-05-31T07:30:39.965Z,97179.93
2018-05-31T07:33:07.484Z,97178.67
2018-05-31T07:35:35.026Z,97176.99
2018-05-31T07:38:02.537Z,97183.22
2018-05-31T07:40:30.281Z,97181.36
2018-05-31T07:42:57.797Z,97178.07
2018-05-31T07:45:25.325Z,97186.98
2018-05-31T07:47:52.872Z,97183.77
2018-05-31T07:50:20.385Z,97180.72
2018-05-31T07:52:48.186Z,97179.45
2018-05-31T07:55:15.704Z,97188.10
2018-05-31T07:57:43.224Z,97184.79
2018-05-31T08:00:10.774Z,97188.16
2018-05-31T08:02:38.419Z,97188.16
2018-05-31T08:05:05.992Z,97191.91
2018-05-31T08:07:33.517Z,97193.58
2018-05-31T08:10:01.029Z,97193.17
2018-05-31T08:12:28.568Z,97190.19
2018-05-31T08:14:56.384Z,97193.39
2018-05-31T08:17:23.929Z,97197.76
2018-05-31T08:19:51.844Z,97199.44
2018-05-31T08:22:19.529Z,97198.80
2018-05-31T08:24:47.054Z,97193.53
2018-05-31T08:27:14.609Z,97198.36
2018-05-31T08:29:42.128Z,97198.82
2018-05-31T08:32:10.126Z,97198.14
2018-05-31T08:34:37.665Z,97197.92
2018-05-31T08:37:05.184Z,97193.03
2018-05-31T08:39:32.744Z,97196.30
2018-05-31T08:42:00.288Z,97200.30
2018-05-31T08:44:27.956Z,97201.97
2018-05-31T08:46:55.488Z,97204.65
2018-05-31T08:49:23.373Z,97208.48
2018-05-31T08:51:51.041Z,97212.77
2018-05-31T08:54:18.561Z,97208.63
2018-05-31T08:56:46.572Z,97211.47
2018-05-31T08:59:14.089Z,97215.03
2018-05-31T09:01:41.632Z,97222.63
2018-05-31T09:04:09.186Z,97211.52
2018-05-31T09:06:36.758Z,97213.42
2018-05-31T09:09:04.677Z,97208.86
2018-05-31T09:11:32.202Z,97213.41
2018-05-31T09:13:59.817Z,97215.03
2018-05-31T09:16:27.402Z,97210.17
2018-05-31T09:18:55.103Z,97218.41
2018-05-31T09:21:22.671Z,97206.75
2018-05-31T09:23:50.194Z,97208.56
2018-05-31T09:26:17.819Z,97206.88
2018-05-31T09:28:45.376Z,97206.30
2018-05-31T09:31:12.949Z,97204.05
2018-05-31T09:33:40.781Z,97202.10
2018-05-31T09:36:08.309Z,97207.78
2018-05-31T09:38:35.840Z,97200.43
2018-05-31T09:41:03.491Z,97198.11
2018-05-31T09:43:31.022Z,97195.81
2018-05-31T09:45:58.686Z,97193.36
2018-05-31T09:48:26.265Z,97198.42
2018-05-31T09:50:53.857Z,97193.94
2018-05-31T09:53:21.401Z,97191.12
2018-05-31T09:55:48.914Z,97197.52
2018-05-31T09:58:16.870Z,97192.27
2018-05-31T10:00:44.349Z,97198.47
2018-05-31T10:03:11.873Z,97202.44
2018-05-31T10:05:39.425Z,97201.95
2018-05-31T10:08:07.144Z,97195.49
2018-05-31T10:10:34.747Z,97199.05
2018-05-31T10:13:02.264Z,97194.45
2018-05-31T10:15:29.798Z,97191.41
2018-05-31T10:17:57.366Z,97192.62
2018-05-31T10:20:24.896Z,97192.57
2018-05-31T10:22:52.697Z,97191.34
2018-05-31T10:25:21.289Z,97186.94
2018-05-31T10:27:48.829Z,97182.39
2018-05-31T10:30:16.373Z,97173.73
2018-05-31T10:32:43.889Z,97183.17
2018-05-31T10:35:11.618Z,97177.84
2018-05-31T10:37:39.291Z,97176.80
2018-05-31T10:40:06.828Z,97177.25
2018-05-31T10:42:34.397Z,97171.36
2018-05-31T10:45:02.175Z,97172.95
2018-05-31T10:47:30.698Z,97175.83
2018-05-31T10:49:58.253Z,97174.69
2018-05-31T10:52:26.027Z,97178.39
2018-05-31T10:54:53.593Z,97174.52
2018-05-31T10:57:21.116Z,97174.45
2018-05-31T10:59:48.862Z,97176.50
2018-05-31T11:02:16.569Z,97176.73
2018-05-31T11:04:44.122Z,97180.05
2018-05-31T11:07:12.272Z,97178.77
2018-05-31T11:09:39.845Z,97171.35
2018-05-31T11:12:08.278Z,97170.02
2018-05-31T11:14:35.875Z,97176.24
2018-05-31T11:17:03.619Z,97178.88
2018-05-31T11:19:31.177Z,97167.98
2018-05-31T11:21:59.052Z,97162.99
2018-05-31T11:24:26.628Z,97170.28
2018-05-31T11:26:54.334Z,97171.66
2018-05-31T11:29:22.035Z,97174.22
2018-05-31T11:31:49.796Z,97166.30
2018-05-31T11:34:18.495Z,97167.95
2018-05-31T11:36:46.656Z,97164.46
2018-05-31T11:39:14.524Z,97159.02
2018-05-31T11:41:42.335Z,97159.36
2018-05-31T11:44:15.188Z,97155.97
2018-05-31T11:46:43.072Z,97154.81
2018-05-31T11:49:12.347Z,97155.19
2018-05-31T11:51:40.164Z,97147.16
2018-05-31T11:54:07.969Z,97148.27
2018-05-31T11:56:35.841Z,97158.28
2018-05-31T11:59:03.803Z,97157.39
2018-05-31T12:01:31.776Z,97156.09
2018-05-31T12:03:59.405Z,97147.55
2018-05-31T12:06:27.203Z,97151.55
2018-05-31T12:08:55.067Z,97155.52
2018-05-31T12:11:22.680Z,97157.08
2018-05-31T12:13:50.348Z,97157.36
2018-05-31T12:16:17.902Z,97144.22
2018-05-31T12:18:45.703Z,97147.19
2018-05-31T12:21:13.341Z,97144.45
2018-05-31T12:23:40.874Z,97145.05
2018-05-31T12:26:08.763Z,97147.31
2018-05-31T12:28:36.301Z,97139.55
2018-05-31T12:31:03.840Z,97139.88
2018-05-31T12:33:31.683Z,97130.88
2018-05-31T12:35:59.446Z,97128.32
2018-05-31T12:38:27.278Z,97132.84
2018-05-31T12:40:54.874Z,97130.31
2018-05-31T12:43:22.745Z,97133.84
2018-05-31T12:45:50.271Z,97136.91
2018-05-31T12:48:17.839Z,97119.06
2018-05-31T12:50:45.609Z,97126.13
2018-05-31T12:53:13.188Z,97128.95
2018-05-31T12:55:41.545Z,97135.22
2018-05-31T12:58:09.065Z,97126.26
2018-05-31T13:00:36.591Z,97132.34
2018-05-31T13:03:04.137Z,97126.13
2018-05-31T13:05:31.773Z,97119.42
2018-05-31T13:07:59.664Z,97113.40
2018-05-31T13:10:27.229Z,97115.19
2018-05-31T13:12:55.091Z,97118.11
2018-05-31T13:15:22.854Z,97119.36
2018-05-31T13:17:50.894Z,97121.31
2018-05-31T13:20:19.429Z,97120.87
2018-05-31T13:22:47.069Z,97121.36
2018-05-31T13:25:14.866Z,97113.84
2018-05-31T13:27:42.565Z,97113.80
2018-05-31T13:30:10.361Z,97113.23
2018-05-31T13:32:38.330Z,97113.42
2018-05-31T13:35:06.199Z,97109.98
2018-05-31T13:37:34.165Z,97105.35
2018-05-31T13:40:01.937Z,97118.91
2018-05-31T13:42:29.758Z,97121.23
2018-05-31T13:44:57.457Z,97124.62
2018-05-31T13:47:25.222Z,97115.99
2018-05-31T13:49:52.864Z,97123.25
2018-05-31T13:52:20.428Z,97125.23
2018-05-31T13:54:48.070Z,97123.35
2018-05-31T13:57:16.279Z,97116.42
2018-05-31T13:59:43.865Z,97129.88
2018-05-31T14:02:11.448Z,97126.98
2018-05-31T14:04:39.371Z,97128.31
2018-05-31T14:07:07.137Z,97121.20
2018-05-31T14:09:35.389Z,97119.62
2018-05-31T14:12:03.279Z,97120.73
2018-05-31T14:14:31.037Z,97128.14
2018-05-31T14:16:58.905Z,97113.61
2018-05-31T14:19:26.566Z,97111.86
2018-05-31T14:21:54.661Z,97097.05
2018-05-31T14:24:25.328Z,97092.00
2018-05-31T14:26:53.150Z,97092.97
2018-05-31T14:29:20.796Z,97101.01
2018-05-31T14:31:48.767Z,97103.06
2018-05-31T14:34:17.280Z,97110.41
2018-05-31T14:36:45.069Z,97107.44
2018-05-31T14:39:12.984Z,97108.96
2018-05-31T14:41:41.360Z,97104.71
2018-05-31T14:44:09.226Z,97111.95
2018-05-31T14:46:37.290Z,97121.61
2018-05-31T14:49:05.166Z,97119.38
2018-05-31T14:51:33.176Z,97118.66
2018-05-31T14:54:01.106Z,97113.92
2018-05-31T14:56:28.969Z,97107.23
2018-05-31T14:58:56.938Z,97102.58
2018-05-31T15:01:25.417Z,97096.95
2018-05-31T15:03:53.286Z,97094.52
2018-05-31T15:06:21.152Z,97092.13
2018-05-31T15:08:49.018Z,97087.13
2018-05-31T15:11:17.703Z,97094.83
2018-05-31T15:13:45.268Z,97086.08
2018-05-31T15:16:13.035Z,97084.45
2018-05-31T15:18:40.926Z,97088.22
2018-05-31T15:21:08.589Z,97083.59
2018-05-31T15:23:36.437Z,97078.11
2018-05-31T15:26:04.163Z,97066.96
2018-05-31T15:28:31.746Z,97062.92
2018-05-31T15:30:59.511Z,97065.58
2018-05-31T15:33:27.268Z,97061.22
2018-05-31T15:35:55.038Z,97060.80
2018-05-31T15:38:22.804Z,97057.63
2018-05-31T15:40:50.699Z,97055.31
2018-05-31T15:43:18.541Z,97061.75
2018-05-31T15:45:46.406Z,97055.09
2018-05-31T15:48:14.781Z,97058.51
2018-05-31T15:50:42.333Z,97063.09
2018-05-31T15:53:10.207Z,97060.81
2018-05-31T15:55:38.080Z,97064.56
2018-05-31T15:58:06.722Z,97065.98
2018-05-31T16:00:34.691Z,97069.61
2018-05-31T16:03:02.800Z,97067.52
2018-05-31T16:05:30.665Z,97065.66
2018-05-31T16:07:58.594Z,97063.91
2018-05-31T16:10:27.526Z,97070.19
2018-05-31T16:12:55.601Z,97065.22
2018-05-31T16:15:23.563Z,97070.11
2018-05-31T16:17:51.535Z,97068.63
2018-05-31T16:20:19.402Z,97063.67
2018-05-31T16:22:47.164Z,97074.83
2018-05-31T16:25:15.117Z,97064.24
2018-05-31T16:27:43.103Z,97067.92
2018-05-31T16:30:11.277Z,97061.31
2018-05-31T16:35:11.926Z,97057.31
2018-05-31T16:37:40.278Z,97071.38
2018-05-31T16:40:08.282Z,97081.34
2018-05-31T16:42:36.140Z,97077.18
2018-05-31T16:45:04.892Z,97073.17
2018-05-31T16:47:32.797Z,97063.62
2018-05-31T16:50:00.959Z,97064.14
2018-05-31T16:52:28.847Z,97056.19
2018-05-31T16:54:56.389Z,97050.80
2018-05-31T16:57:24.160Z,97045.89
2018-05-31T16:59:51.821Z,97036.70
2018-05-31T17:02:19.856Z,97032.62
2018-05-31T17:04:47.446Z,97029.52
2018-05-31T17:07:14.977Z,97027.50
2018-05-31T17:09:42.982Z,97020.28
2018-05-31T17:12:10.556Z,97021.99
2018-05-31T17:14:38.273Z,97022.25
2018-05-31T17:17:05.863Z,97021.34
2018-05-31T17:19:33.574Z,97025.12
2018-05-31T17:22:01.271Z,97027.63
2018-05-31T17:24:28.789Z,97016.83
2018-05-31T17:26:56.613Z,97023.28
2018-05-31T17:29:24.148Z,97023.63
2018-05-31T17:31:51.789Z,97031.23
2018-05-31T17:34:19.349Z,97042.92
2018-05-31T17:36:47.029Z,97051.33
2018-05-31T17:39:14.921Z,97061.00
2018-05-31T17:41:42.442Z,97066.03
2018-05-31T17:44:10.135Z,97065.77
2018-05-31T17:46:37.804Z,97065.08
2018-05-31T17:49:05.471Z,97071.94
2018-05-31T17:51:33.056Z,97077.09
2018-05-31T17:54:00.581Z,97078.98
2018-05-31T17:56:28.092Z,97075.77
2018-05-31T17:58:55.780Z,97074.74
2018-05-31T18:01:23.431Z,97065.22
2018-05-31T18:03:51.044Z,97062.67
2018-05-31T18:06:18.570Z,97064.88
2018-05-31T18:08:46.750Z,97054.59
2018-05-31T18:11:14.353Z,97048.75
2018-05-31T18:13:41.882Z,97047.16
2018-05-31T18:16:09.449Z,97060.63
2018-05-31T18:18:37.025Z,97065.19
2018-05-31T18:21:04.554Z,97081.23
2018-05-31T18:23:32.115Z,97083.69
2018-05-31T18:25:59.655Z,97092.55
2018-05-31T18:28:27.644Z,97098.73
2018-05-31T18:30:55.613Z,97101.52
2018-05-31T18:33:23.587Z,97104.21
2018-05-31T18:35:51.512Z,97106.66
2018-05-31T18:38:19.184Z,97112.17
2018-05-31T18:40:46.790Z,97109.48
2018-05-31T18:43:14.348Z,97113.25
2018-05-31T18:45:42.918Z,97107.48
2018-05-31T18:48:10.778Z,97107.22
2018-05-31T18:50:38.446Z,97107.54
2018-05-31T18:53:06.207Z,97106.78
2018-05-31T18:55:34.036Z,97108.55
2018-05-31T18:58:02.653Z,97108.31
2018-05-31T19:00:30.470Z,97102.45
2018-05-31T19:02:58.289Z,97105.31
2018-05-31T19:05:26.149Z,97099.55
2018-05-31T19:07:55.051Z,97091.33
2018-05-31T19:10:22.913Z,97087.59
2018-05-31T19:12:56.411Z,97100.16
2018-05-31T19:15:24.224Z,97100.73
2018-05-31T19:17:52.147Z,97094.99
2018-05-31T19:20:19.909Z,97090.37
2018-05-31T19:22:47.569Z,97091.27
2018-05-31T19:25:20.357Z,97082.81
2018-05-31T19:27:48.118Z,97079.23
2018-05-31T19:30:21.423Z,97075.46
2018-05-31T19:32:49.646Z,97071.48
2018-05-31T19:35:24.004Z,97073.83
2018-05-31T19:37:51.876Z,97073.23
2018-05-31T19:40:19.839Z,97073.97
2018-05-31T19:42:53.442Z,97077.56
2018-05-31T19:45:21.511Z,97085.41
2018-05-31T19:47:49.452Z,97087.67
2018-05-31T19:50:18.171Z,97079.95
2018-05-31T19:52:51.662Z,97079.70
2018-05-31T19:55:19.531Z,97089.02
2018-05-31T19:57:53.183Z,97092.23
2018-05-31T20:00:26.435Z,97098.20
2018-05-31T20:03:00.748Z,97103.41
2018-05-31T20:05:28.712Z,97097.22
2018-05-31T20:07:56.579Z,97093.27
2018-05-31T20:10:24.455Z,97092.99
2018-05-31T20:12:52.320Z,97099.98
2018-05-31T20:15:20.139Z,97107.56
2018-05-31T20:17:47.938Z,97113.71
2018-05-31T20:20:15.605Z,97121.73
2018-05-31T20:22:43.576Z,97122.02
2018-05-31T20:25:11.338Z,97115.73
2018-05-31T20:27:39.513Z,97124.08
2018-05-31T20:30:08.144Z,97119.44
2018-05-31T20:32:36.001Z,97125.31
2018-05-31T20:35:03.932Z,97129.80
2018-05-31T20:37:32.515Z,97124.09
2018-05-31T20:40:00.586Z,97127.17
2018-05-31T20:42:28.630Z,97123.75
2018-05-31T20:44:56.630Z,97119.24
2018-05-31T20:47:24.491Z,97118.42
2018-05-31T20:49:52.257Z,97109.06
2018-05-31T20:52:20.600Z,97096.98
2018-05-31T20:54:49.322Z,97087.28
2018-05-31T20:57:17.161Z,97074.11
2018-05-31T20:59:44.850Z,97064.83
2018-05-31T21:02:12.617Z,97067.45
2018-05-31T21:04:40.790Z,97072.20
2018-05-31T21:07:09.269Z,97077.97
2018-05-31T21:09:36.836Z,97074.78
2018-05-31T21:12:04.810Z,97075.22
2018-05-31T21:14:32.668Z,97075.70
2018-05-31T21:17:00.733Z,97071.68
2018-05-31T21:19:28.444Z,97065.20
2018-05-31T21:21:56.263Z,97053.88
2018-05-31T21:24:24.232Z,97042.86
2018-05-31T21:26:52.098Z,97035.93
2018-05-31T21:29:20.212Z,97029.61
2018-05-31T21:31:47.907Z,97021.25
2018-05-31T21:34:15.597Z,97027.67
2018-05-31T21:36:43.347Z,97032.38
2018-05-31T21:39:10.893Z,97047.53
2018-05-31T21:41:38.573Z,97065.03
2018-05-31T21:44:06.117Z,97071.39
2018-05-31T21:46:33.701Z,97051.22
2018-05-31T21:49:01.670Z,97014.29
2018-05-31T21:51:29.387Z,97019.58
2018-05-31T21:53:57.248Z,97067.02
2018-05-31T21:56:24.793Z,97120.05
2018-05-31T21:58:52.336Z,97174.38
2018-05-31T22:01:19.943Z,97232.44
2018-05-31T22:03:47.643Z,97226.42
2018-05-31T22:06:15.384Z,97282.41
2018-05-31T22:08:43.151Z,97301.53
2018-05-31T22:11:10.672Z,97298.89
2018-05-31T22:13:38.594Z,97261.23
2018-05-31T22:16:06.158Z,97221.92
2018-05-31T22:18:34.228Z,97237.25
2018-05-31T22:21:01.823Z,97234.52
2018-05-31T22:23:29.446Z,97258.66
2018-05-31T22:25:57.015Z,97303.51
2018-05-31T22:28:24.597Z,97349.72
2018-05-31T22:30:52.804Z,97342.78
2018-05-31T22:33:20.622Z,97324.55
2018-05-31T22:35:48.135Z,97316.22
2018-05-31T22:38:15.821Z,97324.88
2018-05-31T22:40:43.341Z,97345.00
2018-05-31T22:43:11.359Z,97361.50
2018-05-31T22:45:38.877Z,97390.30
2018-05-31T22:48:06.528Z,97417.71
2018-05-31T22:50:34.082Z,97436.96
2018-05-31T22:53:01.624Z,97428.30
2018-05-31T22:55:29.445Z,97418.66
2018-05-31T22:57:56.973Z,97421.34
2018-05-31T23:00:24.492Z,97434.05
2018-05-31T23:02:52.065Z,97435.86
2018-05-31T23:05:19.569Z,97416.31
2018-05-31T23:07:47.113Z,97411.00
2018-05-31T23:10:14.640Z,97409.61
2018-05-31T23:12:42.157Z,97404.31
2018-05-31T23:15:10.244Z,97397.80
2018-05-31T23:17:37.770Z,97397.94
2018-05-31T23:20:05.324Z,97397.86
2018-05-31T23:22:32.843Z,97398.86
2018-05-31T23:25:00.357Z,97402.27
2018-05-31T23:27:27.896Z,97398.31
2018-05-31T23:29:55.424Z,97391.39
2018-05-31T23:32:22.982Z,97386.97
2018-05-31T23:34:50.507Z,97382.99
2018-05-31T23:37:18.032Z,97381.45
2018-05-31T23:39:45.583Z,97386.80
2018-05-31T23:42:13.101Z,97382.09
2018-05-31T23:44:40.685Z,97372.42
2018-05-31T23:47:08.213Z,97370.77
2018-05-31T23:49:35.774Z,97367.63
2018-05-31T23:52:03.313Z,97370.31
2018-05-31T23:54:30.838Z,97367.94
2018-05-31T23:56:58.532Z,97379.69
2018-05-31T23:59:26.057Z,97383.22
